»·PEaware :: DAL702 KABQ-KDEN

DAL702 :: KABQ-KDEN

FLIGHT INFORMATION

Flight Status: Arrived
Operator:
Delta Air Lines
More flights by this operator :: More flights under this callsign
Pilot: Kevin M. (7)
Aircraft: BOEING 737-800
(B738)
More flights by this aircraft type
Origin: KABQ Albuquerque Intl Sunport
United States
Destination: KDEN Denver Intl
United States
More flights between these airports :: More routes between these airports
Route: +JEMEZ3 JEMEZ BRAZO LDORA2
File this flight plan on PilotEdge
Remarks:
Altitude:
(Current/Filed)
33,000ft
Speed:
(Current/Filed)
468kts
Departed: 13-Aug-19 02:04 PM
Arrived: 13-Aug-19 02:54 PM
Distance/Time
Traveled:
303nm/0:49
Distance/Time
To Go:
Arrived

Flight Plot

Page will automatically refresh every two minutes.

Flight plan parsing failed; only flown route is shown


Map Options




Map Legend


Flown Route
Filed Route
Departure Airport
Arrival Airport
Navaid (VOR, NDB)
Fix

Horizontal Profiles

Position Reports

Time Latitude Longitude Heading Altitude Ground
Speed
13-Aug-19 13:17 35.046923 -106.614476 339 5316ft 0kts
13-Aug-19 13:18 35.046923 -106.614476 339 5316ft 0kts
13-Aug-19 13:19 35.046923 -106.614476 339 5316ft 0kts
13-Aug-19 13:20 35.046923 -106.614476 339 5316ft 0kts
13-Aug-19 13:21 35.046923 -106.614476 339 5316ft 0kts
13-Aug-19 13:22 35.046923 -106.614476 339 5316ft 0kts
13-Aug-19 13:23 35.046923 -106.614476 339 5316ft 0kts
13-Aug-19 13:24 35.046923 -106.614476 339 5316ft 0kts
13-Aug-19 13:25 35.046923 -106.614476 339 5316ft 0kts
13-Aug-19 13:26 35.046923 -106.614476 339 5316ft 0kts
13-Aug-19 13:27 35.046923 -106.614476 339 5316ft 0kts
13-Aug-19 13:28 35.046923 -106.614476 339 5316ft 0kts
13-Aug-19 13:29 35.046923 -106.614476 339 5316ft 0kts
13-Aug-19 13:30 35.046923 -106.614476 339 5316ft 0kts
13-Aug-19 13:31 35.046923 -106.614476 339 5316ft 0kts
13-Aug-19 13:32 35.046923 -106.614476 339 5316ft 0kts
13-Aug-19 13:33 35.046923 -106.614476 339 5316ft 0kts
13-Aug-19 13:34 35.046923 -106.614476 339 5316ft 0kts
13-Aug-19 13:35 35.046923 -106.614476 339 5316ft 0kts
13-Aug-19 13:36 35.046923 -106.614476 339 5316ft 0kts
13-Aug-19 13:37 35.046923 -106.614476 339 5316ft 0kts
13-Aug-19 13:38 35.046923 -106.614476 339 5316ft 0kts
13-Aug-19 13:40 35.046923 -106.614476 339 5316ft 0kts
13-Aug-19 13:41 35.046923 -106.614476 339 5316ft 0kts
13-Aug-19 13:42 35.046923 -106.614476 339 5316ft 0kts
13-Aug-19 13:43 35.046923 -106.614476 339 5316ft 0kts
13-Aug-19 13:44 35.046923 -106.614476 339 5316ft 0kts
13-Aug-19 13:45 35.046923 -106.614476 339 5316ft 0kts
13-Aug-19 13:46 35.046923 -106.614476 339 5316ft 0kts
13-Aug-19 13:47 35.046923 -106.614476 339 5316ft 0kts
13-Aug-19 13:48 35.046923 -106.614476 339 5316ft 0kts
13-Aug-19 13:49 35.046923 -106.614476 339 5316ft 0kts
13-Aug-19 13:50 35.046923 -106.614476 339 5316ft 0kts
13-Aug-19 13:51 35.046923 -106.614476 339 5316ft 0kts
13-Aug-19 13:52 35.046923 -106.614476 339 5316ft 0kts
13-Aug-19 13:53 35.046923 -106.614476 339 5316ft 0kts
13-Aug-19 13:54 35.046923 -106.614476 339 5316ft 0kts
13-Aug-19 13:55 35.046923 -106.614476 339 5316ft 0kts
13-Aug-19 13:55 35.046923 -106.614476 339 5316ft 0kts
13-Aug-19 13:57 35.046923 -106.614476 339 5316ft 0kts
13-Aug-19 13:58 35.046468 -106.614227 329 5317ft 2kts
13-Aug-19 13:58 35.046290 -106.614091 325 5317ft 0kts
13-Aug-19 14:00 35.046291 -106.614092 325 5317ft 0kts
13-Aug-19 14:00 35.045590 -106.617486 269 5314ft 21kts
13-Aug-19 14:02 35.044648 -106.621394 178 5301ft 13kts
13-Aug-19 14:03 35.044338 -106.620475 89 5307ft 5kts
13-Aug-19 14:03 35.044147 -106.591988 90 5392ft 178kts
13-Aug-19 14:04 35.045865 -106.532951 61 7143ft 194kts
13-Aug-19 14:05 35.097417 -106.545599 315 8003ft 263kts
13-Aug-19 14:06 35.153482 -106.614271 315 10407ft 294kts
13-Aug-19 14:07 35.211725 -106.685934 314 13401ft 301kts
13-Aug-19 14:08 35.282312 -106.752938 327 15026ft 357kts
13-Aug-19 14:09 35.374601 -106.822973 327 16130ft 418kts
13-Aug-19 14:10 35.479878 -106.870016 349 18563ft 439kts
13-Aug-19 14:11 35.602465 -106.888857 349 20945ft 455kts
13-Aug-19 14:12 35.730073 -106.908464 349 23169ft 471kts
13-Aug-19 14:13 35.862102 -106.928866 348 25289ft 487kts
13-Aug-19 14:14 35.999622 -106.923175 9 27469ft 514kts
13-Aug-19 14:15 36.136560 -106.876684 9 30261ft 511kts
13-Aug-19 14:16 36.273223 -106.832068 9 32741ft 509kts
13-Aug-19 14:17 36.409240 -106.787521 8 33396ft 504kts
13-Aug-19 14:18 36.544285 -106.743171 8 33403ft 504kts
13-Aug-19 14:19 36.679554 -106.698588 8 33415ft 504kts
13-Aug-19 14:20 36.815043 -106.653770 8 33425ft 504kts
13-Aug-19 14:21 36.950377 -106.612536 7 33426ft 503kts
13-Aug-19 14:22 37.086125 -106.571785 7 33427ft 501kts
13-Aug-19 14:23 37.221419 -106.531010 8 33424ft 502kts
13-Aug-19 14:24 37.357031 -106.489970 8 33426ft 502kts
13-Aug-19 14:25 37.492641 -106.448768 8 33426ft 502kts
13-Aug-19 14:26 37.627834 -106.407535 8 33427ft 503kts
13-Aug-19 14:27 37.763409 -106.366021 8 33428ft 502kts
13-Aug-19 14:28 37.898796 -106.324442 8 33418ft 502kts
13-Aug-19 14:29 38.034435 -106.282655 8 33425ft 503kts
13-Aug-19 14:30 38.165411 -106.218905 21 33426ft 511kts
13-Aug-19 14:31 38.294946 -106.145321 19 33427ft 509kts
13-Aug-19 14:32 38.424400 -106.072300 19 33428ft 509kts
13-Aug-19 14:33 38.554241 -105.998764 19 33429ft 510kts
13-Aug-19 14:34 38.680713 -105.926716 19 33431ft 484kts
13-Aug-19 14:35 38.804364 -105.856048 20 33423ft 487kts
13-Aug-19 14:36 38.911287 -105.750525 44 32362ft 500kts
13-Aug-19 14:37 39.008782 -105.623895 41 28978ft 496kts
13-Aug-19 14:38 39.104745 -105.500912 41 24535ft 471kts
13-Aug-19 14:39 39.194139 -105.386155 41 21336ft 453kts
13-Aug-19 14:40 39.262057 -105.264438 68 19267ft 380kts
13-Aug-19 14:41 39.289831 -105.134469 74 17256ft 348kts
13-Aug-19 14:42 39.312436 -105.013290 75 15348ft 350kts
13-Aug-19 14:43 39.333526 -104.897678 77 14016ft 307kts
13-Aug-19 14:44 39.390675 -104.821935 28 11729ft 317kts
13-Aug-19 14:45 39.468090 -104.766079 28 9734ft 317kts
13-Aug-19 14:46 39.541879 -104.712977 27 9003ft 275kts
13-Aug-19 14:47 39.605802 -104.675936 17 8602ft 241kts
13-Aug-19 14:48 39.668306 -104.649523 18 7918ft 234kts
13-Aug-19 14:49 39.733350 -104.642619 0 7176ft 213kts
13-Aug-19 14:50 39.784335 -104.642346 3 6156ft 160kts
13-Aug-19 14:51 39.829201 -104.641748 2 5445ft 161kts
13-Aug-19 14:52 39.856011 -104.642259 336 5325ft 44kts
13-Aug-19 14:53 39.864806 -104.648993 287 5358ft 31kts
13-Aug-19 14:54 39.865002 -104.661506 266 5407ft 23kts
13-Aug-19 14:55 39.857565 -104.662333 179 5426ft 30kts
13-Aug-19 14:56 39.852028 -104.663380 269 5412ft 16kts
13-Aug-19 14:57 39.852799 -104.670998 298 5400ft 8kts

Navigation Log

Ident Type
Flight plan parsing failed, navigation log unavailable